Time;durP1;ratioP1;P1;durP2;ratioP2;P2;SDS_P1;SDS_P2;PMS_P1;PMS_P2;Temp;Humidity;BMP_temperature;BMP_pressure;BME280_temperature;BME280_humidity;BME280_pressure;Samples;Min_cycle;Max_cycle;Signal;HPM_P1;HPM_P2
2021/06/24 00:01:58;;;;;;;11.00;7.60;;;25.40;76.60;;;;;;1852223;76;21065;-47
2021/06/24 00:04:28;;;;;;;12.05;7.42;;;25.30;76.60;;;;;;1837366;77;21014;-49
2021/06/24 00:06:57;;;;;;;16.12;8.55;;;25.30;76.60;;;;;;1837353;78;21010;-51
2021/06/24 00:09:27;;;;;;;11.78;7.35;;;25.30;76.70;;;;;;1837304;78;21057;-49
2021/06/24 00:11:56;;;;;;;12.05;6.55;;;25.30;76.80;;;;;;1837190;78;21113;-50
2021/06/24 00:14:26;;;;;;;12.75;7.92;;;25.20;76.70;;;;;;1837179;77;21034;-49
2021/06/24 00:16:56;;;;;;;14.38;8.23;;;25.20;76.80;;;;;;1837354;77;21007;-47
2021/06/24 00:19:25;;;;;;;13.30;7.78;;;25.20;77.00;;;;;;1837180;78;21010;-52
2021/06/24 00:21:55;;;;;;;21.33;8.13;;;25.10;77.20;;;;;;1837320;77;21034;-51
2021/06/24 00:24:24;;;;;;;15.45;8.48;;;25.10;77.40;;;;;;1837229;76;21034;-50
2021/06/24 00:26:54;;;;;;;16.62;7.42;;;25.00;77.40;;;;;;1837324;76;21061;-50
2021/06/24 00:29:23;;;;;;;15.05;7.75;;;25.00;77.30;;;;;;1837170;76;21104;-48
2021/06/24 00:31:53;;;;;;;13.40;8.20;;;25.00;77.20;;;;;;1837360;77;21050;-48
2021/06/24 00:34:22;;;;;;;14.63;7.70;;;25.00;77.20;;;;;;1837414;77;21039;-48
2021/06/24 00:36:51;;;;;;;15.05;8.20;;;25.00;77.10;;;;;;1837363;78;21155;-47
2021/06/24 00:39:21;;;;;;;15.43;7.65;;;25.10;77.00;;;;;;1837552;77;21074;-47
2021/06/24 00:41:52;;;;;;;12.15;7.22;;;25.20;76.70;;;;;;1837417;76;21105;-47
2021/06/24 00:44:21;;;;;;;10.88;7.83;;;25.10;76.60;;;;;;1837298;78;21085;-47
2021/06/24 00:46:52;;;;;;;11.33;7.25;;;25.10;76.50;;;;;;1837376;76;21096;-48
2021/06/24 00:49:21;;;;;;;14.60;7.25;;;25.20;76.50;;;;;;1837298;77;21041;-50
2021/06/24 00:51:51;;;;;;;14.50;8.08;;;25.20;76.70;;;;;;1837227;76;21104;-49
2021/06/24 00:54:21;;;;;;;11.80;7.47;;;25.20;76.60;;;;;;1837329;78;21033;-49
2021/06/24 00:56:50;;;;;;;13.53;7.83;;;25.20;76.40;;;;;;1837408;78;21034;-47
2021/06/24 00:59:21;;;;;;;18.05;8.58;;;25.20;76.40;;;;;;1837473;76;21057;-47
2021/06/24 01:01:51;;;;;;;15.30;8.38;;;25.20;76.50;;;;;;1837367;76;21085;-46
2021/06/24 01:04:24;;;;;;;14.63;8.83;;;25.20;76.50;;;;;;1848957;76;21190;-49
2021/06/24 01:06:55;;;;;;;19.17;10.10;;;25.10;76.60;;;;;;1884965;76;21085;-50
2021/06/24 01:09:25;;;;;;;13.95;8.78;;;25.00;76.90;;;;;;1884784;76;21026;-48
2021/06/24 01:11:54;;;;;;;19.60;10.60;;;25.00;77.40;;;;;;1884715;75;21030;-47
2021/06/24 01:14:25;;;;;;;17.52;8.75;;;25.00;77.70;;;;;;1884858;76;21077;-47
2021/06/24 01:16:54;;;;;;;17.62;9.20;;;25.00;77.80;;;;;;1884758;76;21100;-47
2021/06/24 01:19:24;;;;;;;12.40;8.23;;;25.10;78.10;;;;;;1884699;76;21054;-47
2021/06/24 01:21:54;;;;;;;11.43;8.38;;;25.10;78.30;;;;;;1884796;75;21022;-48
2021/06/24 01:24:23;;;;;;;18.35;10.40;;;25.10;78.40;;;;;;1884807;76;21031;-50
2021/06/24 01:26:53;;;;;;;15.75;10.00;;;25.10;78.60;;;;;;1884809;76;21414;-47
2021/06/24 01:29:22;;;;;;;15.83;10.15;;;25.10;78.60;;;;;;1884762;76;21080;-49
2021/06/24 01:31:52;;;;;;;16.23;9.60;;;25.00;78.70;;;;;;1884831;75;21176;-48
2021/06/24 01:34:21;;;;;;;15.15;9.55;;;24.90;78.80;;;;;;1884829;76;21106;-48
2021/06/24 01:36:51;;;;;;;14.87;9.78;;;24.90;79.20;;;;;;1884818;75;21002;-47
2021/06/24 01:39:20;;;;;;;12.68;9.28;;;24.90;79.40;;;;;;1884707;75;21035;-48
2021/06/24 01:41:57;;;;;;;13.88;8.90;;;24.90;79.50;;;;;;1884626;76;21046;-49
2021/06/24 01:44:38;;;;;;;12.70;9.03;;;25.00;79.60;;;;;;1884729;76;21026;-48
2021/06/24 01:47:10;;;;;;;18.02;9.75;;;25.10;79.60;;;;;;1884753;76;21018;-49
2021/06/24 01:49:40;;;;;;;17.37;9.43;;;25.10;79.40;;;;;;1884809;75;21088;-48
2021/06/24 01:52:09;;;;;;;18.27;9.83;;;25.10;79.30;;;;;;1884652;75;21031;-46
2021/06/24 01:54:40;;;;;;;16.95;9.90;;;25.00;79.30;;;;;;1884909;76;21030;-48
2021/06/24 01:57:12;;;;;;;17.17;10.03;;;25.00;79.20;;;;;;1884667;75;21543;-49
2021/06/24 01:59:42;;;;;;;14.15;9.70;;;24.90;79.40;;;;;;1884785;76;21101;-47
2021/06/24 02:02:13;;;;;;;14.60;9.38;;;24.80;79.50;;;;;;1884231;76;21073;-47
2021/06/24 02:04:50;;;;;;;19.73;9.85;;;24.80;79.60;;;;;;1872251;76;21079;-49
2021/06/24 02:07:21;;;;;;;11.38;8.88;;;24.80;79.80;;;;;;1835547;78;21120;-48
2021/06/24 02:10:09;;;;;;;14.33;9.78;;;24.80;79.90;;;;;;1837236;77;21058;-47
2021/06/24 02:12:41;;;;;;;16.93;10.95;;;24.80;80.00;;;;;;1836084;77;21061;-51
2021/06/24 02:15:12;;;;;;;28.17;12.13;;;24.80;80.10;;;;;;1837235;78;21022;-48
2021/06/24 02:17:42;;;;;;;29.32;15.85;;;24.80;80.20;;;;;;1824873;78;21095;-47
2021/06/24 02:20:14;;;;;;;31.02;19.12;;;24.70;80.20;;;;;;1824954;79;21078;-47
2021/06/24 02:22:45;;;;;;;33.50;17.02;;;24.70;80.30;;;;;;1813702;78;21161;-50
2021/06/24 02:25:16;;;;;;;26.68;14.50;;;24.70;80.50;;;;;;1824803;78;21575;-47
2021/06/24 02:27:51;;;;;;;28.50;13.98;;;24.60;80.30;;;;;;1806737;79;21125;-47
2021/06/24 02:30:28;;;;;;;25.85;11.28;;;24.60;80.40;;;;;;1822025;78;21062;-46
2021/06/24 02:32:59;;;;;;;24.82;13.32;;;24.50;80.20;;;;;;1824675;78;21166;-47
2021/06/24 02:35:31;;;;;;;18.80;11.00;;;24.50;80.30;;;;;;1824915;79;21051;-47
2021/06/24 02:38:03;;;;;;;19.25;11.53;;;24.50;80.40;;;;;;1824594;77;21150;-47
2021/06/24 02:40:36;;;;;;;20.10;12.20;;;24.50;80.40;;;;;;1823732;77;21062;-48
2021/06/24 02:43:07;;;;;;;24.35;13.25;;;24.50;80.60;;;;;;1824887;79;21054;-48
2021/06/24 02:45:41;;;;;;;16.95;12.73;;;24.50;80.60;;;;;;1824880;79;21055;-47
2021/06/24 02:48:12;;;;;;;23.70;12.90;;;24.50;80.70;;;;;;1824359;78;21164;-47
2021/06/24 02:50:42;;;;;;;28.45;12.95;;;24.60;80.70;;;;;;1824794;79;21102;-46
2021/06/24 02:53:12;;;;;;;25.77;12.40;;;24.60;80.70;;;;;;1824811;79;21047;-51
2021/06/24 02:55:43;;;;;;;23.35;12.15;;;24.60;80.60;;;;;;1824876;79;21102;-49
2021/06/24 02:58:13;;;;;;;21.80;11.75;;;24.70;80.50;;;;;;1824865;79;21072;-46
2021/06/24 03:00:53;;;;;;;23.27;12.43;;;24.80;80.40;;;;;;1800774;79;21121;-46
2021/06/24 03:03:41;;;;;;;19.10;10.90;;;24.90;80.20;;;;;;1826864;78;21092;-48
2021/06/24 03:06:12;;;;;;;16.30;11.00;;;24.90;80.10;;;;;;1884257;76;21158;-50
2021/06/24 03:08:43;;;;;;;18.55;9.95;;;24.90;80.10;;;;;;1862702;76;21062;-48
2021/06/24 03:11:15;;;;;;;22.00;11.28;;;25.00;80.10;;;;;;1884761;76;21054;-51
2021/06/24 03:13:49;;;;;;;16.95;9.68;;;25.00;79.90;;;;;;1884343;76;21061;-48
2021/06/24 03:16:20;;;;;;;18.40;10.88;;;25.10;79.90;;;;;;1884447;76;21053;-47
2021/06/24 03:18:50;;;;;;;16.90;10.50;;;25.10;79.70;;;;;;1884653;76;21096;-47
2021/06/24 03:21:20;;;;;;;17.02;9.85;;;25.10;79.60;;;;;;1884816;76;21100;-50
2021/06/24 03:23:50;;;;;;;21.15;9.98;;;25.20;79.60;;;;;;1884704;75;21010;-49
2021/06/24 03:26:20;;;;;;;16.60;8.60;;;25.20;79.60;;;;;;1884798;75;21034;-50
2021/06/24 03:28:51;;;;;;;17.48;9.43;;;25.20;79.50;;;;;;1884548;75;21101;-50
2021/06/24 03:31:22;;;;;;;17.50;9.60;;;25.20;79.50;;;;;;1884301;75;21143;-50
2021/06/24 03:33:52;;;;;;;21.95;10.68;;;25.30;79.50;;;;;;1884659;76;21488;-49
2021/06/24 03:36:22;;;;;;;20.55;11.60;;;25.30;79.40;;;;;;1884658;76;21116;-52
2021/06/24 03:38:52;;;;;;;21.75;11.05;;;25.30;79.40;;;;;;1884831;75;20986;-50
2021/06/24 03:41:25;;;;;;;14.75;9.63;;;25.30;79.40;;;;;;1884292;76;21093;-50
2021/06/24 03:43:57;;;;;;;21.70;10.18;;;25.20;79.40;;;;;;1884587;75;21049;-49
2021/06/24 03:46:27;;;;;;;15.03;9.45;;;25.20;79.50;;;;;;1884902;75;21026;-48
2021/06/24 03:48:57;;;;;;;17.95;10.40;;;25.20;79.80;;;;;;1884714;76;21035;-50
2021/06/24 03:51:26;;;;;;;26.50;10.70;;;25.10;79.90;;;;;;1884804;76;21031;-50
2021/06/24 03:53:57;;;;;;;16.90;10.70;;;25.20;80.10;;;;;;1884190;76;21058;-49
2021/06/24 03:56:27;;;;;;;20.05;9.93;;;25.10;80.20;;;;;;1884779;76;21006;-47
2021/06/24 03:58:58;;;;;;;13.80;9.50;;;25.10;80.50;;;;;;1883936;76;21050;-49
2021/06/24 04:01:27;;;;;;;15.80;10.60;;;25.10;80.70;;;;;;1884803;75;21043;-49
2021/06/24 04:03:56;;;;;;;18.50;11.15;;;25.10;81.00;;;;;;1885504;75;21102;-49
2021/06/24 04:06:30;;;;;;;16.30;10.25;;;25.10;81.30;;;;;;1893053;75;21164;-48
2021/06/24 04:09:00;;;;;;;15.60;9.68;;;25.10;81.70;;;;;;1894079;74;21030;-50
2021/06/24 04:11:31;;;;;;;19.25;10.45;;;25.10;81.90;;;;;;1893746;75;21183;-50
2021/06/24 04:14:03;;;;;;;16.90;10.68;;;25.10;82.00;;;;;;1892599;75;21070;-47
2021/06/24 04:16:39;;;;;;;13.70;9.83;;;25.10;82.30;;;;;;1890604;75;21481;-47
2021/06/24 04:19:10;;;;;;;15.98;10.23;;;25.10;82.40;;;;;;1894100;75;21096;-49
2021/06/24 04:21:40;;;;;;;13.68;8.65;;;25.10;82.50;;;;;;1894108;76;21026;-47
2021/06/24 04:24:11;;;;;;;22.42;8.63;;;25.10;82.50;;;;;;1893873;75;21141;-47
2021/06/24 04:26:40;;;;;;;18.35;9.83;;;25.10;82.40;;;;;;1893768;76;21028;-48
2021/06/24 04:29:10;;;;;;;12.95;8.48;;;25.20;82.30;;;;;;1893896;75;21096;-50
2021/06/24 04:31:40;;;;;;;16.20;9.18;;;25.30;82.10;;;;;;1893790;76;21030;-47
2021/06/24 04:34:09;;;;;;;20.88;12.85;;;25.30;81.90;;;;;;1893876;75;21138;-51
2021/06/24 04:36:43;;;;;;;17.95;10.58;;;25.40;81.80;;;;;;1892630;75;21062;-46
2021/06/24 04:39:13;;;;;;;19.80;9.15;;;25.40;81.90;;;;;;1893614;75;21181;-47
2021/06/24 04:41:43;;;;;;;19.77;9.53;;;25.50;81.90;;;;;;1893994;75;21034;-50
2021/06/24 04:44:14;;;;;;;15.13;8.33;;;25.50;81.70;;;;;;1893810;75;21085;-50
2021/06/24 04:46:45;;;;;;;12.63;7.47;;;25.50;81.40;;;;;;1893848;75;21508;-50
2021/06/24 04:49:16;;;;;;;15.45;7.05;;;25.50;80.70;;;;;;1893972;76;21088;-47
2021/06/24 04:51:49;;;;;;;17.80;8.23;;;25.50;80.60;;;;;;1893758;75;21136;-50
2021/06/24 04:54:39;;;;;;;14.10;7.20;;;25.50;80.40;;;;;;1890959;75;21079;-48
2021/06/24 04:57:09;;;;;;;14.07;7.28;;;25.50;80.40;;;;;;1893789;76;21030;-46
2021/06/24 04:59:58;;;;;;;18.17;7.53;;;25.60;80.40;;;;;;1793223;78;21053;-47
2021/06/24 05:02:45;;;;;;;26.25;8.08;;;25.60;80.20;;;;;;1793218;79;21543;-50
2021/06/24 05:05:16;;;;;;;13.55;6.97;;;25.60;80.20;;;;;;1839562;75;21073;-50
2021/06/24 05:07:46;;;;;;;13.85;5.95;;;25.60;80.00;;;;;;1893977;76;21030;-49
2021/06/24 05:10:15;;;;;;;17.30;7.08;;;25.50;79.50;;;;;;1893854;75;21100;-51
2021/06/24 05:12:45;;;;;;;13.22;6.55;;;25.50;79.30;;;;;;1893803;75;21003;-50
2021/06/24 05:15:15;;;;;;;12.28;6.25;;;25.50;79.20;;;;;;1893855;76;21166;-50
2021/06/24 05:17:44;;;;;;;10.28;6.55;;;25.50;79.10;;;;;;1893817;75;21034;-51
2021/06/24 05:20:14;;;;;;;10.88;6.25;;;25.60;79.00;;;;;;1894026;76;21062;-48
2021/06/24 05:22:44;;;;;;;11.65;5.67;;;25.80;78.60;;;;;;1893880;76;21204;-50
2021/06/24 05:25:13;;;;;;;9.98;5.83;;;25.80;78.00;;;;;;1893871;76;21042;-47
2021/06/24 05:27:43;;;;;;;15.15;6.03;;;26.00;77.60;;;;;;1893903;76;21084;-49
2021/06/24 05:30:12;;;;;;;15.20;7.17;;;26.10;77.60;;;;;;1894018;76;21092;-50
2021/06/24 05:32:42;;;;;;;18.67;8.90;;;26.20;77.50;;;;;;1893907;76;21038;-50
2021/06/24 05:35:11;;;;;;;12.50;6.28;;;26.40;77.80;;;;;;1894034;76;21088;-49
2021/06/24 05:37:41;;;;;;;14.63;8.18;;;26.60;77.60;;;;;;1893885;75;21026;-50
2021/06/24 05:40:10;;;;;;;12.90;6.47;;;26.80;77.30;;;;;;1893941;76;21030;-50
2021/06/24 05:42:40;;;;;;;21.00;7.05;;;27.00;76.40;;;;;;1894058;76;21057;-50
2021/06/24 05:45:10;;;;;;;10.23;5.55;;;27.20;75.90;;;;;;1893976;76;21096;-50
2021/06/24 05:47:40;;;;;;;16.67;6.30;;;27.40;75.20;;;;;;1893988;76;21527;-50
2021/06/24 05:50:09;;;;;;;12.88;6.03;;;27.60;74.10;;;;;;1894013;76;21109;-48
2021/06/24 05:52:38;;;;;;;9.18;4.67;;;27.70;73.10;;;;;;1893936;76;21453;-49
2021/06/24 05:55:08;;;;;;;9.23;4.40;;;27.70;71.90;;;;;;1893977;76;21050;-50
2021/06/24 05:57:37;;;;;;;9.20;4.72;;;27.70;71.40;;;;;;1894055;76;21096;-50
2021/06/24 06:00:08;;;;;;;9.18;5.45;;;27.70;72.10;;;;;;1893980;76;21104;-50
2021/06/24 06:02:38;;;;;;;15.38;5.40;;;27.60;71.50;;;;;;1893574;75;21074;-51
2021/06/24 06:05:09;;;;;;;14.05;5.95;;;27.60;71.80;;;;;;1891759;76;21030;-50
2021/06/24 06:07:38;;;;;;;15.72;6.28;;;27.60;71.50;;;;;;1884380;75;21493;-51
2021/06/24 06:10:08;;;;;;;6.45;4.58;;;27.60;71.60;;;;;;1837341;77;21046;-49
2021/06/24 06:12:38;;;;;;;12.65;5.40;;;27.60;71.10;;;;;;1837268;77;21062;-49
2021/06/24 06:15:08;;;;;;;14.75;4.90;;;27.60;71.50;;;;;;1837216;78;21010;-51
2021/06/24 06:17:40;;;;;;;14.83;6.42;;;27.60;71.50;;;;;;1837359;78;21101;-49
2021/06/24 06:20:09;;;;;;;5.80;4.60;;;27.70;71.50;;;;;;1837358;77;21025;-47
2021/06/24 06:22:39;;;;;;;9.98;4.40;;;27.80;71.40;;;;;;1837143;77;21022;-50
2021/06/24 06:25:09;;;;;;;11.25;5.30;;;28.00;71.10;;;;;;1837198;77;21030;-50
2021/06/24 06:27:39;;;;;;;11.73;4.80;;;28.20;70.90;;;;;;1837277;77;21030;-49
2021/06/24 06:30:09;;;;;;;10.15;5.08;;;28.40;70.40;;;;;;1837266;78;21002;-50
2021/06/24 06:32:38;;;;;;;18.90;6.08;;;28.60;70.20;;;;;;1837155;78;21026;-50
2021/06/24 06:35:08;;;;;;;10.10;4.62;;;28.70;70.00;;;;;;1837362;76;21088;-51
2021/06/24 06:37:37;;;;;;;8.68;4.40;;;28.90;69.40;;;;;;1837230;77;21033;-49
2021/06/24 06:40:08;;;;;;;9.80;5.45;;;29.00;68.30;;;;;;1837465;78;21066;-50
2021/06/24 06:42:37;;;;;;;5.60;3.85;;;29.10;68.30;;;;;;1837341;77;21041;-50
2021/06/24 06:45:08;;;;;;;7.20;3.80;;;29.20;68.00;;;;;;1837361;77;21069;-48
2021/06/24 06:47:37;;;;;;;9.43;4.60;;;29.40;67.90;;;;;;1837491;77;21159;-48
2021/06/24 06:50:07;;;;;;;6.90;3.98;;;29.50;67.00;;;;;;1837287;76;21030;-51
2021/06/24 06:52:37;;;;;;;8.18;4.60;;;29.60;66.60;;;;;;1837151;77;21124;-49
2021/06/24 06:55:07;;;;;;;8.13;4.67;;;29.70;66.60;;;;;;1837194;78;21088;-50
2021/06/24 06:57:36;;;;;;;11.20;4.83;;;29.70;66.50;;;;;;1837251;78;21014;-49
2021/06/24 07:00:08;;;;;;;9.70;4.42;;;29.60;66.60;;;;;;1837332;77;21100;-50
2021/06/24 07:02:38;;;;;;;9.55;4.55;;;29.60;67.00;;;;;;1837357;77;21108;-50
2021/06/24 07:05:08;;;;;;;8.33;3.85;;;29.60;67.10;;;;;;1837283;77;21128;-49
2021/06/24 07:07:37;;;;;;;10.80;4.53;;;29.60;66.80;;;;;;1837209;76;21140;-47
2021/06/24 07:10:07;;;;;;;7.75;4.03;;;29.70;67.00;;;;;;1835880;77;21574;-51
2021/06/24 07:12:37;;;;;;;9.00;4.00;;;29.80;67.00;;;;;;1835406;78;21838;-52
2021/06/24 07:15:08;;;;;;;8.38;3.83;;;29.90;66.40;;;;;;1830147;77;21152;-52
2021/06/24 07:17:38;;;;;;;5.83;3.58;;;30.00;65.80;;;;;;1836424;77;21112;-52
2021/06/24 07:20:08;;;;;;;11.63;4.40;;;30.10;65.00;;;;;;1835214;78;21107;-51
2021/06/24 07:22:38;;;;;;;7.90;3.52;;;30.20;64.80;;;;;;1833311;78;21137;-48
2021/06/24 07:25:09;;;;;;;7.67;3.50;;;30.30;65.30;;;;;;1832881;78;21074;-49
2021/06/24 07:27:39;;;;;;;10.32;3.50;;;30.40;64.70;;;;;;1831567;77;21030;-52
2021/06/24 07:30:09;;;;;;;7.55;3.12;;;30.50;64.30;;;;;;1877511;76;21085;-51
2021/06/24 07:32:39;;;;;;;7.37;3.65;;;30.60;63.90;;;;;;1876044;76;21043;-52
2021/06/24 07:35:09;;;;;;;6.33;3.52;;;30.70;63.60;;;;;;1873997;76;21078;-47
2021/06/24 07:37:38;;;;;;;6.97;3.27;;;30.80;63.30;;;;;;1877550;76;21108;-49
2021/06/24 07:40:09;;;;;;;7.47;3.30;;;30.90;63.00;;;;;;1879505;76;21035;-51
2021/06/24 07:42:38;;;;;;;11.43;3.40;;;31.00;62.50;;;;;;1881490;75;21046;-51
2021/06/24 07:45:08;;;;;;;10.13;3.83;;;31.00;62.20;;;;;;1851774;77;21453;-49
2021/06/24 07:47:38;;;;;;;8.45;3.33;;;31.00;62.00;;;;;;1852087;77;21066;-45
2021/06/24 07:50:08;;;;;;;11.40;5.60;;;31.10;61.40;;;;;;1851561;77;21223;-48
2021/06/24 07:52:37;;;;;;;4.47;3.35;;;31.00;61.60;;;;;;1851754;77;21030;-43
2021/06/24 07:55:07;;;;;;;5.58;3.58;;;31.00;61.10;;;;;;1852126;77;21234;-45
2021/06/24 07:57:36;;;;;;;8.13;4.00;;;30.90;60.70;;;;;;1851760;77;21182;-46
2021/06/24 08:00:08;;;;;;;7.78;4.03;;;30.90;60.10;;;;;;1851802;77;21431;-44
2021/06/24 08:02:38;;;;;;;5.33;3.00;;;30.90;59.90;;;;;;1851507;77;21038;-48
2021/06/24 08:05:09;;;;;;;5.70;3.30;;;31.00;59.40;;;;;;1852032;77;21034;-46
2021/06/24 08:07:40;;;;;;;6.72;3.12;;;31.00;59.10;;;;;;1861007;77;21069;-52
2021/06/24 08:10:10;;;;;;;4.58;2.85;;;31.10;58.90;;;;;;1867237;77;21091;-49
2021/06/24 08:12:41;;;;;;;7.55;3.10;;;31.20;58.60;;;;;;1866605;75;21088;-48
2021/06/24 08:15:20;;;;;;;11.05;4.37;;;31.20;58.10;;;;;;1866804;77;21567;-46
2021/06/24 08:18:01;;;;;;;4.45;3.33;;;31.30;57.90;;;;;;1861847;75;21171;-47
2021/06/24 08:20:36;;;;;;;6.50;3.12;;;31.40;57.90;;;;;;1885393;74;21533;-46
2021/06/24 08:23:15;;;;;;;7.47;3.12;;;31.50;57.90;;;;;;1898971;75;21097;-47
2021/06/24 08:25:55;;;;;;;23.12;13.58;;;31.50;57.70;;;;;;1892976;75;21112;-47
2021/06/24 08:28:34;;;;;;;9.18;5.15;;;31.60;57.60;;;;;;1898503;75;21124;-45
2021/06/24 08:31:17;;;;;;;11.12;3.50;;;31.80;57.20;;;;;;1856625;76;21106;-46
2021/06/24 08:33:59;;;;;;;4.40;2.65;;;31.90;57.00;;;;;;1854747;76;21180;-48
2021/06/24 08:36:29;;;;;;;8.30;3.22;;;32.00;56.80;;;;;;1853825;76;21061;-49
2021/06/24 08:38:59;;;;;;;9.80;5.08;;;32.00;56.40;;;;;;1897210;75;21091;-47
2021/06/24 08:41:28;;;;;;;4.22;3.15;;;32.10;56.10;;;;;;1855128;77;21042;-50
2021/06/24 08:43:58;;;;;;;6.40;3.72;;;32.10;56.40;;;;;;1898424;75;21085;-50
2021/06/24 08:46:28;;;;;;;7.80;3.83;;;32.20;56.60;;;;;;1855653;77;21116;-51
2021/06/24 08:48:59;;;;;;;10.45;4.50;;;32.20;56.10;;;;;;1856045;76;21065;-52
2021/06/24 08:51:28;;;;;;;13.20;4.25;;;32.10;56.40;;;;;;1856699;76;21029;-50
2021/06/24 08:53:59;;;;;;;5.25;3.62;;;32.10;56.00;;;;;;1856145;77;21120;-49
2021/06/24 08:56:29;;;;;;;7.65;4.15;;;32.10;56.10;;;;;;1856032;76;21088;-48
2021/06/24 08:58:58;;;;;;;7.05;3.40;;;32.10;55.30;;;;;;1856803;77;21108;-47
2021/06/24 09:01:49;;;;;;;7.53;3.72;;;32.20;54.80;;;;;;1856821;76;21159;-48
2021/06/24 09:04:22;;;;;;;3.98;2.83;;;32.30;54.30;;;;;;1857194;77;21018;-49
2021/06/24 09:06:53;;;;;;;11.75;3.85;;;32.20;54.10;;;;;;1856953;76;21088;-50
2021/06/24 09:09:27;;;;;;;12.15;4.20;;;32.20;54.40;;;;;;1847946;76;21179;-50
2021/06/24 09:12:10;;;;;;;8.68;5.72;;;32.30;54.80;;;;;;1883984;76;21089;-50
2021/06/24 09:14:48;;;;;;;5.67;3.95;;;32.40;54.50;;;;;;1883822;75;20999;-48
2021/06/24 09:17:46;;;;;;;11.90;4.92;;;32.50;53.90;;;;;;1883877;75;21115;-48
2021/06/24 09:20:27;;;;;;;8.63;4.20;;;32.50;54.30;;;;;;1881079;74;21145;-49
2021/06/24 09:23:21;;;;;;;8.80;4.10;;;32.50;54.60;;;;;;1901271;74;21163;-49
2021/06/24 09:26:07;;;;;;;13.13;5.15;;;32.60;54.60;;;;;;1897458;74;21086;-47
2021/06/24 09:28:50;;;;;;;7.17;4.25;;;32.70;55.30;;;;;;1829034;77;21139;-48
2021/06/24 09:31:41;;;;;;;6.50;4.95;;;32.80;54.60;;;;;;1869069;76;21552;-45
2021/06/24 09:34:07;;;;;;;;;;;32.80;54.60;;;;;;1874955;76;21121;-50
2021/06/24 09:36:38;;;;;;;9.50;5.17;;;32.80;54.20;;;;;;1874040;76;20140;-46
2021/06/24 09:39:13;;;;;;;8.20;4.60;;;32.80;54.80;;;;;;1874246;76;21034;-48
2021/06/24 09:42:01;;;;;;;9.30;4.85;;;32.90;55.10;;;;;;1872101;75;21224;-46
2021/06/24 09:44:32;;;;;;;7.58;4.90;;;32.90;54.90;;;;;;1876255;74;21027;-51
2021/06/24 09:47:02;;;;;;;8.03;5.40;;;32.80;54.80;;;;;;1873721;75;21042;-50
2021/06/24 09:49:36;;;;;;;9.88;5.45;;;32.70;54.60;;;;;;1874570;76;21035;-47
2021/06/24 09:52:05;;;;;;;12.23;4.62;;;32.70;55.10;;;;;;1874616;76;21545;-49
2021/06/24 09:54:38;;;;;;;9.73;4.92;;;32.60;56.00;;;;;;1874630;76;21105;-47
2021/06/24 09:57:08;;;;;;;12.05;5.42;;;32.50;55.80;;;;;;1874546;76;21105;-45
2021/06/24 09:59:40;;;;;;;10.18;4.72;;;32.50;55.90;;;;;;1874492;76;21006;-46
2021/06/24 10:02:14;;;;;;;8.35;4.17;;;32.40;56.10;;;;;;1874566;75;21096;-49
2021/06/24 10:04:43;;;;;;;;;;;32.40;56.40;;;;;;1877380;76;21097;-46
2021/06/24 10:07:15;;;;;;;11.75;4.97;;;32.50;56.60;;;;;;1874656;75;20113;-54
2021/06/24 10:09:46;;;;;;;7.25;4.35;;;32.50;56.50;;;;;;1896673;74;21112;-46
2021/06/24 10:12:17;;;;;;;15.48;6.00;;;32.50;56.50;;;;;;1895508;74;21120;-44
2021/06/24 10:14:47;;;;;;;13.85;5.42;;;32.60;56.10;;;;;;1897009;76;21448;-48
2021/06/24 10:17:17;;;;;;;15.32;7.67;;;32.70;55.70;;;;;;1897147;76;21002;-44
2021/06/24 10:19:47;;;;;;;8.55;4.80;;;32.90;55.80;;;;;;1897035;76;21105;-45
2021/06/24 10:22:21;;;;;;;18.25;5.78;;;33.00;55.20;;;;;;1896944;76;21099;-47
2021/06/24 10:24:57;;;;;;;10.05;5.28;;;33.10;55.20;;;;;;1894973;76;21133;-48
2021/06/24 10:27:37;;;;;;;11.35;5.03;;;33.10;55.00;;;;;;1896909;76;21087;-46
2021/06/24 10:30:11;;;;;;;10.98;5.47;;;33.10;54.90;;;;;;1897042;75;21476;-48
2021/06/24 10:32:42;;;;;;;12.25;5.50;;;33.10;54.80;;;;;;1896031;76;21120;-47
2021/06/24 10:35:26;;;;;;;11.28;5.47;;;33.00;55.00;;;;;;1897104;76;21026;-46
2021/06/24 10:37:55;;;;;;;23.77;10.83;;;32.90;55.20;;;;;;1897121;75;21154;-46
2021/06/24 10:40:28;;;;;;;13.75;6.53;;;32.70;55.70;;;;;;1896948;76;21138;-48
2021/06/24 10:42:59;;;;;;;10.83;5.53;;;32.70;56.20;;;;;;1897364;76;21107;-48
2021/06/24 10:45:29;;;;;;;11.00;5.78;;;32.70;56.10;;;;;;1896995;74;21350;-49
2021/06/24 10:47:59;;;;;;;8.55;5.90;;;32.70;55.90;;;;;;1896937;75;21037;-48
2021/06/24 10:50:39;;;;;;;10.98;5.65;;;32.80;55.40;;;;;;1897003;76;21025;-46
2021/06/24 10:53:09;;;;;;;12.20;6.17;;;32.80;55.40;;;;;;1896057;76;21134;-46
2021/06/24 10:55:53;;;;;;;12.65;6.70;;;32.90;55.20;;;;;;1896987;76;21049;-44
2021/06/24 10:58:26;;;;;;;13.53;6.33;;;32.90;54.80;;;;;;1896217;75;21022;-45
2021/06/24 11:01:01;;;;;;;12.33;6.10;;;32.80;54.80;;;;;;1897094;76;21511;-47
2021/06/24 11:03:36;;;;;;;13.80;6.33;;;32.70;54.80;;;;;;1897022;76;21104;-46
2021/06/24 11:06:13;;;;;;;15.85;7.10;;;32.70;55.00;;;;;;1897159;76;21523;-45
2021/06/24 11:08:43;;;;;;;16.15;6.67;;;32.70;54.90;;;;;;1896934;75;21058;-45
2021/06/24 11:11:14;;;;;;;15.88;6.05;;;32.60;54.90;;;;;;1896998;76;21096;-45
2021/06/24 11:13:48;;;;;;;11.70;5.95;;;32.50;54.80;;;;;;1897081;75;21017;-48
2021/06/24 11:16:20;;;;;;;12.30;5.20;;;32.50;54.70;;;;;;1897115;76;21092;-46
2021/06/24 11:19:14;;;;;;;13.88;5.72;;;32.50;54.50;;;;;;1897107;76;21488;-46
2021/06/24 11:21:45;;;;;;;15.40;6.03;;;32.70;54.60;;;;;;1897259;76;21038;-47
2021/06/24 11:24:18;;;;;;;13.83;5.08;;;32.80;54.60;;;;;;1897092;75;21084;-46
2021/06/24 11:26:49;;;;;;;10.35;5.47;;;32.90;53.90;;;;;;1896983;76;21030;-49
2021/06/24 11:29:28;;;;;;;12.07;5.33;;;32.90;54.30;;;;;;1897022;76;21099;-48
2021/06/24 11:32:10;;;;;;;16.05;5.15;;;33.00;54.60;;;;;;1896955;76;21030;-47
2021/06/24 11:34:51;;;;;;;13.72;4.50;;;33.00;53.60;;;;;;1895405;76;21053;-46
2021/06/24 11:37:20;;;;;;;18.05;10.25;;;33.10;53.70;;;;;;1896868;76;21488;-45
2021/06/24 11:39:58;;;;;;;11.97;4.90;;;33.10;53.20;;;;;;1897055;75;21017;-48
2021/06/24 11:42:33;;;;;;;13.30;5.10;;;33.20;53.50;;;;;;1897181;76;21029;-45
2021/06/24 11:45:04;;;;;;;11.22;5.17;;;33.20;54.00;;;;;;1897065;75;21005;-49
2021/06/24 11:47:35;;;;;;;11.75;5.50;;;33.20;53.20;;;;;;1897103;74;21034;-47
2021/06/24 12:03:03;;;;;;;19.73;5.22;;;33.30;52.50;;;;;;1897051;75;21123;-46
2021/06/24 12:04:31;;;;;;;11.60;4.95;;;33.20;52.80;;;;;;1891895;76;21123;-48
2021/06/24 12:07:10;;;;;;;19.52;6.95;;;33.10;52.80;;;;;;1897043;76;21058;-45
2021/06/24 12:09:49;;;;;;;15.23;5.40;;;33.00;52.80;;;;;;1880087;75;21066;-46
2021/06/24 12:12:23;;;;;;;16.12;5.35;;;32.80;52.90;;;;;;1863089;76;21046;-45
2021/06/24 12:14:58;;;;;;;13.35;6.62;;;32.70;53.30;;;;;;1863408;77;21039;-45
2021/06/24 12:17:36;;;;;;;13.40;4.92;;;32.70;53.20;;;;;;1863035;77;21031;-47
2021/06/24 12:20:07;;;;;;;14.15;5.37;;;32.60;53.20;;;;;;1862933;76;21023;-49
2021/06/24 12:22:52;;;;;;;11.73;5.67;;;32.60;53.60;;;;;;1863499;77;21054;-47
2021/06/24 12:25:23;;;;;;;12.40;5.25;;;32.60;53.40;;;;;;1863040;76;21249;-44
2021/06/24 12:27:55;;;;;;;16.57;5.17;;;32.70;54.00;;;;;;1863036;77;21104;-45
2021/06/24 12:30:36;;;;;;;12.55;4.87;;;32.80;54.10;;;;;;1863157;77;21113;-46
2021/06/24 12:33:14;;;;;;;12.98;4.62;;;32.90;54.00;;;;;;1863098;76;21074;-48
2021/06/24 12:35:46;;;;;;;11.75;5.05;;;33.00;53.10;;;;;;1863013;77;21100;-48
2021/06/24 12:38:18;;;;;;;13.53;4.70;;;33.00;53.20;;;;;;1862840;76;21097;-49
2021/06/24 12:40:50;;;;;;;10.65;4.62;;;33.00;53.10;;;;;;1862642;77;21047;-48
2021/06/24 12:43:28;;;;;;;11.25;5.12;;;33.10;53.30;;;;;;1862956;76;21109;-49
2021/06/24 12:46:00;;;;;;;14.40;6.12;;;33.10;53.30;;;;;;1862591;76;21055;-46
2021/06/24 12:48:31;;;;;;;14.78;5.60;;;33.00;53.60;;;;;;1862982;76;21035;-47
2021/06/24 12:51:06;;;;;;;12.15;5.47;;;33.00;53.90;;;;;;1862870;76;20999;-48
2021/06/24 12:53:40;;;;;;;13.58;4.72;;;32.90;53.80;;;;;;1863011;76;21102;-45
2021/06/24 12:56:28;;;;;;;12.82;5.03;;;32.90;53.90;;;;;;1862943;76;21126;-46
2021/06/24 12:59:17;;;;;;;7.78;4.67;;;32.90;54.20;;;;;;1863026;76;21461;-49
2021/06/24 13:01:46;;;;;;;16.35;5.83;;;33.10;54.10;;;;;;1862820;77;21062;-48
2021/06/24 13:04:16;;;;;;;13.48;5.08;;;33.10;54.10;;;;;;1862938;76;21105;-49
2021/06/24 13:06:48;;;;;;;10.30;4.35;;;33.20;54.40;;;;;;1863060;77;21094;-48
2021/06/24 13:09:18;;;;;;;15.53;7.25;;;33.20;53.90;;;;;;1862372;75;21125;-49
2021/06/24 13:11:56;;;;;;;18.75;6.35;;;33.30;54.10;;;;;;1862918;77;21042;-47
2021/06/24 13:14:27;;;;;;;16.10;8.80;;;33.30;54.30;;;;;;1862907;77;21093;-49
2021/06/24 13:17:02;;;;;;;10.38;5.17;;;33.30;54.50;;;;;;1862892;76;21078;-48